Time;durP1;ratioP1;P1;durP2;ratioP2;P2;SDS_P1;SDS_P2;PMS_P1;PMS_P2;Temp;Humidity;BMP_temperature;BMP_pressure;BME280_temperature;BME280_humidity;BME280_pressure;Samples;Min_cycle;Max_cycle;Signal;HPM_P1;HPM_P2
2023/03/31 00:01:51;;;;;;;4.72;4.00;;;;;;;9.94;100.00;100087.69;6085859;23;20079;-76
2023/03/31 00:04:22;;;;;;;9.38;4.57;;;;;;;9.94;100.00;100079.81;6153737;23;20080;-76
2023/03/31 00:06:52;;;;;;;4.23;4.03;;;;;;;9.10;100.00;99934.56;6110572;23;20019;-76
2023/03/31 00:09:20;;;;;;;4.10;3.90;;;;;;;10.06;100.00;100081.69;6113631;23;20079;-76
2023/03/31 00:11:48;;;;;;;4.10;3.90;;;;;;;9.58;100.00;100010.31;6131000;23;20105;-77
2023/03/31 00:14:16;;;;;;;4.93;4.65;;;;;;;10.24;100.00;100100.72;6119128;23;20688;-75
2023/03/31 00:16:43;;;;;;;4.88;4.47;;;;;;;10.27;100.00;100103.19;6115447;23;20020;-76
2023/03/31 00:19:16;;;;;;;4.50;4.20;;;;;;;10.00;100.00;100063.72;6113462;23;20029;-75
2023/03/31 00:21:45;;;;;;;4.85;4.55;;;;;;;9.78;100.00;100025.72;6144200;23;20027;-76
2023/03/31 00:24:12;;;;;;;4.28;4.07;;;;;;;9.50;100.00;99963.66;6110954;23;20026;-77
2023/03/31 00:26:39;;;;;;;4.90;4.50;;;;;;;9.79;100.00;100023.94;6117490;23;20088;-75
2023/03/31 00:29:07;;;;;;;4.32;4.13;;;;;;;10.20;100.00;100086.13;6118825;23;20069;-75
2023/03/31 00:31:34;;;;;;;4.57;4.38;;;;;;;9.79;100.00;100018.69;6144462;23;20008;-73
2023/03/31 00:34:01;;;;;;;4.82;4.40;;;;;;;9.62;100.00;99980.38;6120258;23;20091;-75
2023/03/31 00:36:27;;;;;;;5.63;4.20;;;;;;;10.04;100.00;100040.78;6136390;23;20021;-73
2023/03/31 00:38:59;;;;;;;4.18;3.97;;;;;;;10.02;100.00;100016.44;6151154;23;20116;-76
2023/03/31 00:41:27;;;;;;;4.93;4.25;;;;;;;10.13;100.00;100027.97;6110398;23;20021;-76
2023/03/31 00:44:28;;;;;;;8.57;4.70;;;;;;;10.09;100.00;100010.75;6119778;23;20087;-78
2023/03/31 00:47:19;;;;;;;4.93;4.40;;;;;;;8.54;100.00;99755.59;6144044;23;20079;-78
2023/03/31 00:49:49;;;;;;;4.95;4.47;;;;;;;9.87;100.00;99965.81;6118815;23;20114;-77
2023/03/31 00:52:22;;;;;;;4.03;3.83;;;;;;;10.00;100.00;99990.31;6115818;23;20027;-75
2023/03/31 00:54:55;;;;;;;4.20;3.80;;;;;;;9.67;100.00;99932.97;6118593;23;20025;-77
2023/03/31 00:57:24;;;;;;;4.05;3.85;;;;;;;8.78;100.00;99782.91;6148177;23;20025;-75
2023/03/31 01:00:00;;;;;;;3.95;3.75;;;;;;;9.73;100.00;99943.91;6151092;23;20058;-78
2023/03/31 01:02:27;;;;;;;6.95;4.32;;;;;;;9.39;100.00;99887.47;6144397;23;20530;-76
2023/03/31 01:04:58;;;;;;;4.55;4.13;;;;;;;9.84;100.00;99956.34;6136239;23;20615;-76
2023/03/31 01:07:40;;;;;;;4.65;4.25;;;;;;;9.86;100.00;99945.78;6141425;23;20040;-74
2023/03/31 01:10:07;;;;;;;4.20;4.00;;;;;;;9.83;100.00;99936.31;6155425;23;20064;-76
2023/03/31 01:12:37;;;;;;;4.45;4.25;;;;;;;9.35;100.00;99888.59;6141187;23;20024;-75
2023/03/31 01:15:04;;;;;;;4.10;3.90;;;;;;;9.82;100.00;99921.53;6155354;23;20050;-75
2023/03/31 01:17:31;;;;;;;4.63;4.32;;;;;;;9.64;100.00;99899.09;6146660;23;20036;-75
2023/03/31 01:20:34;;;;;;;4.07;3.88;;;;;;;8.98;100.00;99780.88;6154661;23;20222;-76
2023/03/31 01:23:12;;;;;;;4.38;4.18;;;;;;;9.72;100.00;99904.69;6116841;23;20017;-76
2023/03/31 01:26:12;;;;;;;5.38;4.90;;;;;;;9.70;100.00;99896.94;6129468;23;20044;-77
2023/03/31 01:29:00;;;;;;;6.20;4.25;;;;;;;9.67;100.00;99896.28;6113569;23;20031;-76
2023/03/31 01:32:01;;;;;;;4.30;4.05;;;;;;;8.51;100.00;99722.59;6127086;23;20013;-76
2023/03/31 01:34:37;;;;;;;8.70;4.93;;;;;;;9.20;100.00;99817.06;6118809;23;20392;-76
2023/03/31 01:37:20;;;;;;;4.13;3.92;;;;;;;9.60;100.00;99880.09;6142776;23;20025;-76
2023/03/31 01:40:08;;;;;;;4.28;4.07;;;;;;;9.57;100.00;99882.91;6152695;23;20036;-76
2023/03/31 01:42:46;;;;;;;4.47;4.10;;;;;;;8.62;100.00;99724.59;6117273;23;20054;-76
2023/03/31 01:45:22;;;;;;;4.55;4.30;;;;;;;9.61;100.00;99878.31;6122874;23;20029;-76
2023/03/31 01:47:56;;;;;;;5.25;4.20;;;;;;;9.07;100.00;99790.78;6125791;23;20028;-76
2023/03/31 01:50:57;;;;;;;4.53;4.25;;;;;;;9.33;100.00;99822.41;6114272;23;20022;-77
2023/03/31 01:53:32;;;;;;;7.32;4.20;;;;;;;9.68;100.00;99869.13;6154599;23;20634;-76
2023/03/31 01:56:10;;;;;;;4.93;4.60;;;;;;;9.75;100.00;99855.56;6148801;23;20085;-76
2023/03/31 01:58:41;;;;;;;4.50;4.15;;;;;;;9.80;100.00;99857.88;6123840;23;20024;-75
2023/03/31 02:01:21;;;;;;;15.30;4.28;;;;;;;9.57;100.00;99814.81;6148923;23;20120;-74
2023/03/31 02:03:55;;;;;;;8.15;4.90;;;;;;;9.86;100.00;99848.81;6143863;23;20053;-77
2023/03/31 02:06:33;;;;;;;4.72;4.32;;;;;;;9.03;100.00;99695.06;6115241;23;20248;-74
2023/03/31 02:09:12;;;;;;;9.77;4.30;;;;;;;9.49;100.00;99762.06;6155371;17;21051;-76
2023/03/31 02:11:40;;;;;;;4.47;4.18;;;;;;;9.95;100.00;99829.91;6167954;23;20758;-75
2023/03/31 02:14:10;;;;;;;4.15;3.95;;;;;;;9.50;100.00;99756.72;6175874;23;20037;-76
2023/03/31 02:16:40;;;;;;;4.32;4.03;;;;;;;9.99;100.00;99818.28;6149232;23;20025;-76
2023/03/31 02:19:09;;;;;;;4.55;4.15;;;;;;;9.84;100.00;99791.25;6172484;23;20050;-76
2023/03/31 02:21:39;;;;;;;4.72;4.03;;;;;;;9.96;100.00;99810.59;6153755;23;20017;-75
2023/03/31 02:24:10;;;;;;;6.88;4.50;;;;;;;8.58;100.00;99564.41;6151942;23;20029;-77
2023/03/31 02:26:41;;;;;;;20.55;4.80;;;;;;;9.99;100.00;99785.03;6181298;23;20028;-76
2023/03/31 02:29:08;;;;;;;7.05;4.20;;;;;;;9.72;100.00;99721.28;6147820;23;20212;-76
2023/03/31 02:31:56;;;;;;;4.95;4.55;;;;;;;10.00;100.00;99762.28;6145906;23;20032;-76
2023/03/31 02:34:23;;;;;;;4.22;3.83;;;;;;;9.03;100.00;99589.56;6147973;23;20134;-76
2023/03/31 02:36:50;;;;;;;5.50;4.95;;;;;;;9.54;100.00;99674.41;6132349;23;20262;-74
2023/03/31 02:39:22;;;;;;;4.70;4.50;;;;;;;9.93;100.00;99727.78;6170297;23;20025;-76
2023/03/31 02:41:50;;;;;;;5.07;4.65;;;;;;;9.43;100.00;99645.44;6119470;23;20028;-75
2023/03/31 02:44:17;;;;;;;11.63;4.68;;;;;;;9.90;100.00;99720.13;6131436;23;20137;-76
2023/03/31 02:46:44;;;;;;;7.03;4.10;;;;;;;9.55;100.00;99655.13;6108327;23;20306;-76
2023/03/31 02:49:12;;;;;;;4.70;4.47;;;;;;;9.62;100.00;99657.34;6133576;23;20133;-74
2023/03/31 02:51:58;;;;;;;3.88;3.70;;;;;;;9.63;100.00;99667.72;6143181;23;20018;-76
2023/03/31 02:54:42;;;;;;;7.50;3.90;;;;;;;9.47;100.00;99622.50;6161592;23;20035;-76
2023/03/31 02:57:43;;;;;;;6.03;5.47;;;;;;;9.36;100.00;99597.00;6134809;23;20013;-75
2023/03/31 03:00:39;;;;;;;4.63;4.28;;;;;;;9.82;100.00;99663.88;6130099;23;20088;-74
2023/03/31 03:03:18;;;;;;;4.10;3.90;;;;;;;9.77;100.00;99645.88;6163186;23;20051;-73
2023/03/31 03:05:57;;;;;;;5.32;5.03;;;;;;;9.76;100.00;99644.16;6139803;23;20444;-75
2023/03/31 03:09:02;;;;;;;6.38;3.97;;;;;;;9.72;100.00;99637.44;6106125;23;20659;-77
2023/03/31 03:11:45;;;;;;;4.38;4.07;;;;;;;9.29;100.00;99590.50;6163266;23;20101;-75
2023/03/31 03:14:28;;;;;;;4.63;4.32;;;;;;;8.96;100.00;99531.50;6146378;23;20450;-77
2023/03/31 03:17:04;;;;;;;4.93;4.55;;;;;;;9.16;100.00;99554.66;6143803;23;20083;-76
2023/03/31 03:19:31;;;;;;;4.53;4.22;;;;;;;9.51;100.00;99595.19;6142611;23;20101;-76
2023/03/31 03:21:58;;;;;;;4.43;3.88;;;;;;;8.84;100.00;99506.13;6167685;23;20572;-76
2023/03/31 03:24:28;;;;;;;4.63;4.20;;;;;;;9.43;100.00;99595.69;6142278;23;20041;-76
2023/03/31 03:26:55;;;;;;;4.13;3.92;;;;;;;9.62;100.00;99631.97;6109300;23;20024;-76
2023/03/31 03:29:21;;;;;;;6.63;4.63;;;;;;;9.60;100.00;99618.13;6165823;23;20039;-75
2023/03/31 03:31:48;;;;;;;4.50;4.20;;;;;;;9.00;100.00;99514.72;6114783;23;20020;-75
2023/03/31 03:34:15;;;;;;;4.05;3.78;;;;;;;9.49;100.00;99600.50;6138259;23;20033;-76
2023/03/31 03:36:41;;;;;;;6.10;4.20;;;;;;;9.57;100.00;99600.00;6141302;23;20093;-76
2023/03/31 03:39:08;;;;;;;6.85;4.38;;;;;;;9.41;100.00;99562.69;6144398;23;20021;-77
2023/03/31 03:41:34;;;;;;;4.20;4.00;;;;;;;9.21;100.00;99540.41;6139017;23;20015;-76
2023/03/31 03:44:01;;;;;;;4.88;4.60;;;;;;;9.27;100.00;99532.16;6119892;23;20084;-76
2023/03/31 03:46:27;;;;;;;4.50;4.10;;;;;;;9.31;100.00;99551.97;6117810;23;20703;-78
2023/03/31 03:48:54;;;;;;;6.70;4.05;;;;;;;9.45;100.00;99538.81;6165066;23;20155;-76
2023/03/31 03:51:21;;;;;;;4.32;4.13;;;;;;;9.34;100.00;99515.97;6134145;23;20033;-75
2023/03/31 03:53:48;;;;;;;9.88;4.20;;;;;;;9.61;100.00;99558.75;6168369;23;20555;-76
2023/03/31 03:56:14;;;;;;;5.10;4.70;;;;;;;9.48;100.00;99553.47;6115954;23;20036;-77
2023/03/31 03:58:41;;;;;;;4.30;4.10;;;;;;;5.34;100.00;98851.28;6161469;23;20034;-76
2023/03/31 04:01:07;;;;;;;5.63;4.32;;;;;;;9.66;100.00;99561.88;6158948;23;20093;-77
2023/03/31 04:03:34;;;;;;;4.65;4.35;;;;;;;9.14;100.00;99472.78;6104125;23;20450;-77
2023/03/31 04:06:02;;;;;;;4.70;4.30;;;;;;;9.68;100.00;99555.63;6164818;23;20347;-75
2023/03/31 04:08:28;;;;;;;4.00;3.80;;;;;;;9.49;100.00;99508.84;6128478;23;20013;-77
2023/03/31 04:10:54;;;;;;;4.75;4.50;;;;;;;9.25;100.00;99455.50;6155599;23;20045;-76
2023/03/31 04:13:21;;;;;;;8.23;4.45;;;;;;;9.48;100.00;99494.09;6112463;23;20029;-75
2023/03/31 04:15:47;;;;;;;4.10;3.90;;;;;;;9.05;100.00;99418.41;6159041;23;20031;-76
2023/03/31 04:18:21;;;;;;;7.97;4.43;;;;;;;9.14;100.00;99416.94;6109930;23;20637;-75
2023/03/31 04:20:53;;;;;;;4.03;3.83;;;;;;;9.60;100.00;99500.25;6165320;23;20049;-76
2023/03/31 04:23:22;;;;;;;4.53;4.22;;;;;;;9.74;100.00;99518.53;6151819;23;20619;-77
2023/03/31 04:25:52;;;;;;;4.00;3.80;;;;;;;9.56;100.00;99499.66;6168646;23;20081;-77
2023/03/31 04:28:18;;;;;;;5.97;3.88;;;;;;;9.59;100.00;99473.25;6112921;23;20664;-77
2023/03/31 04:30:45;;;;;;;5.85;4.20;;;;;;;9.06;100.00;99359.03;6114336;23;20040;-75
2023/03/31 04:33:14;;;;;;;4.05;3.85;;;;;;;9.73;100.00;99463.63;6152896;23;20346;-74
2023/03/31 04:35:49;;;;;;;4.00;3.80;;;;;;;9.54;100.00;99430.81;6139215;23;20025;-76
2023/03/31 04:38:23;;;;;;;4.90;4.15;;;;;;;9.16;100.00;99370.56;6146675;23;20025;-76
2023/03/31 04:40:51;;;;;;;4.22;3.95;;;;;;;9.64;100.00;99430.19;6118120;23;20491;-75
2023/03/31 04:43:19;;;;;;;4.47;4.25;;;;;;;9.49;100.00;99417.19;6143286;23;20056;-77
2023/03/31 04:45:45;;;;;;;3.90;3.70;;;;;;;9.58;100.00;99421.81;6145587;23;20655;-76
2023/03/31 04:48:12;;;;;;;4.28;3.95;;;;;;;9.22;100.00;99377.16;6137720;23;20100;-76
2023/03/31 04:50:38;;;;;;;5.10;3.85;;;;;;;9.51;100.00;99409.22;6142841;23;20104;-76
2023/03/31 04:53:05;;;;;;;4.03;3.83;;;;;;;9.31;100.00;99372.16;6110998;23;20021;-76
2023/03/31 04:55:32;;;;;;;4.00;3.80;;;;;;;9.15;100.00;99361.06;6171798;23;20102;-76
2023/03/31 04:57:59;;;;;;;4.20;4.00;;;;;;;9.33;100.00;99379.91;6140718;23;20039;-75
2023/03/31 05:00:27;;;;;;;4.22;4.03;;;;;;;9.27;100.00;99360.22;6166932;23;20021;-75
2023/03/31 05:02:54;;;;;;;4.07;3.88;;;;;;;8.92;100.00;99313.72;6154784;23;20032;-76
2023/03/31 05:05:20;;;;;;;22.23;4.15;;;;;;;8.81;100.00;99287.44;6136372;23;20517;-76
2023/03/31 05:07:47;;;;;;;6.05;5.03;;;;;;;8.97;100.00;99295.09;6147480;23;20038;-75
2023/03/31 05:10:16;;;;;;;3.85;3.67;;;;;;;9.10;100.00;99323.88;6115945;23;20021;-75
2023/03/31 05:12:42;;;;;;;5.97;4.38;;;;;;;9.08;100.00;99320.53;6130734;23;20037;-77
2023/03/31 05:15:09;;;;;;;4.18;3.97;;;;;;;8.06;100.00;99132.97;6169848;23;20108;-74
2023/03/31 05:17:36;;;;;;;4.10;3.90;;;;;;;8.99;100.00;99285.34;6115393;23;20039;-76
2023/03/31 05:20:07;;;;;;;3.70;3.60;;;;;;;9.45;100.00;99333.72;6135375;23;20081;-76
2023/03/31 05:22:37;;;;;;;5.07;3.80;;;;;;;8.97;100.00;99267.13;6116476;23;20041;-77
2023/03/31 05:25:07;;;;;;;4.78;4.22;;;;;;;9.50;100.00;99334.22;6142784;23;20045;-75
2023/03/31 05:27:34;;;;;;;4.20;4.00;;;;;;;9.35;100.00;99313.41;6141833;23;20029;-77
2023/03/31 05:30:01;;;;;;;4.43;4.15;;;;;;;9.35;100.00;99307.34;6172433;23;20020;-78
2023/03/31 05:32:28;;;;;;;4.00;3.80;;;;;;;9.07;100.00;99246.41;6115338;23;20664;-77
2023/03/31 05:34:57;;;;;;;4.40;4.20;;;;;;;9.40;100.00;99299.97;6135373;23;20029;-76
2023/03/31 05:37:24;;;;;;;4.43;4.13;;;;;;;9.56;100.00;99320.69;6135548;23;20021;-76
2023/03/31 05:39:51;;;;;;;4.30;4.00;;;;;;;9.61;100.00;99317.78;6168422;23;20025;-76
2023/03/31 05:42:18;;;;;;;3.88;3.70;;;;;;;9.33;100.00;99267.34;6136727;23;20019;-77
2023/03/31 05:44:45;;;;;;;4.00;3.80;;;;;;;9.61;100.00;99328.25;6127229;23;20025;-77
2023/03/31 05:47:11;;;;;;;4.35;4.15;;;;;;;9.24;100.00;99247.88;6165331;23;20032;-77
2023/03/31 05:49:38;;;;;;;3.88;3.70;;;;;;;9.29;100.00;99243.13;6111882;23;20165;-77
2023/03/31 05:52:06;;;;;;;4.30;4.03;;;;;;;9.49;100.00;99267.09;6145560;23;20083;-75
2023/03/31 05:54:32;;;;;;;3.78;3.60;;;;;;;8.95;100.00;99184.47;6163672;23;20025;-75
2023/03/31 05:56:59;;;;;;;5.82;4.22;;;;;;;9.34;100.00;99262.00;6106307;23;20016;-75
2023/03/31 05:59:25;;;;;;;4.85;4.47;;;;;;;9.06;100.00;99197.66;6165684;23;20096;-75
2023/03/31 06:01:52;;;;;;;4.80;4.40;;;;;;;9.07;100.00;99220.25;6165476;23;20593;-76
2023/03/31 06:04:19;;;;;;;3.75;3.65;;;;;;;9.17;100.00;99223.88;6135368;23;20106;-76
2023/03/31 06:06:49;;;;;;;4.88;4.57;;;;;;;9.37;100.00;99256.53;6165396;23;20044;-76
2023/03/31 06:09:16;;;;;;;4.28;4.00;;;;;;;9.17;100.00;99221.28;6115003;23;20044;-74
2023/03/31 06:11:43;;;;;;;4.10;3.90;;;;;;;8.89;100.00;99167.41;6162895;23;20131;-76
2023/03/31 06:14:09;;;;;;;4.00;3.80;;;;;;;9.55;100.00;99266.66;6114792;23;20608;-76
2023/03/31 06:16:36;;;;;;;3.78;3.65;;;;;;;9.65;100.00;99286.00;6139175;23;20201;-76
2023/03/31 06:19:02;;;;;;;5.18;3.70;;;;;;;9.11;100.00;99195.53;6163340;23;20024;-76
2023/03/31 06:21:29;;;;;;;4.00;3.65;;;;;;;9.23;100.00;99216.56;6145662;23;20123;-76
2023/03/31 06:23:57;;;;;;;3.90;3.70;;;;;;;9.64;100.00;99275.63;6126789;23;20519;-76
2023/03/31 06:26:23;;;;;;;3.70;3.60;;;;;;;8.99;100.00;99162.38;6135247;23;20013;-76
2023/03/31 06:28:50;;;;;;;3.97;3.78;;;;;;;8.72;100.00;99131.13;6132873;23;20083;-76
2023/03/31 06:31:19;;;;;;;4.25;4.05;;;;;;;9.63;100.00;99295.75;6120002;23;20028;-76
2023/03/31 06:33:46;;;;;;;4.85;4.45;;;;;;;9.53;100.00;99265.94;6138557;23;20149;-77
2023/03/31 06:36:17;;;;;;;4.15;3.95;;;;;;;8.77;100.00;99140.34;6127742;23;20027;-76
2023/03/31 06:38:44;;;;;;;4.22;3.90;;;;;;;9.60;100.00;99272.38;6102460;23;20082;-76
2023/03/31 06:41:12;;;;;;;4.45;4.20;;;;;;;9.45;100.00;99260.41;6135814;23;20021;-76
2023/03/31 06:43:39;;;;;;;4.20;3.90;;;;;;;9.50;100.00;99261.75;6160556;23;20721;-76
2023/03/31 06:46:06;;;;;;;3.90;3.67;;;;;;;9.56;100.00;99279.66;6154958;23;20035;-76
2023/03/31 06:48:33;;;;;;;4.20;4.00;;;;;;;9.45;100.00;99248.13;6128280;23;20031;-78
2023/03/31 06:51:02;;;;;;;4.03;3.78;;;;;;;9.51;100.00;99246.88;6130314;23;20032;-76
2023/03/31 06:53:29;;;;;;;4.30;4.10;;;;;;;9.53;100.00;99243.19;6139450;23;20024;-76
2023/03/31 06:55:56;;;;;;;5.03;4.63;;;;;;;9.62;100.00;99240.84;6134380;23;20505;-76
2023/03/31 06:58:23;;;;;;;4.20;4.00;;;;;;;9.08;100.00;99147.81;6143823;23;20013;-76
2023/03/31 07:00:51;;;;;;;4.20;4.00;;;;;;;9.77;100.00;99252.84;6136941;23;20046;-76
2023/03/31 07:03:21;;;;;;;5.22;4.72;;;;;;;9.81;100.00;99246.44;6129077;23;20072;-76
2023/03/31 07:05:49;;;;;;;4.05;3.85;;;;;;;9.59;100.00;99205.25;6162130;23;20028;-75
2023/03/31 07:08:17;;;;;;;4.03;3.83;;;;;;;9.51;100.00;99166.50;6135952;23;20246;-75
2023/03/31 07:10:47;;;;;;;4.45;4.05;;;;;;;9.64;100.00;99165.63;6105456;23;20029;-76
2023/03/31 07:13:18;;;;;;;13.48;12.77;;;;;;;9.94;100.00;99231.53;6028169;23;20852;-77
2023/03/31 07:15:48;;;;;;;3.92;3.72;;;;;;;9.68;100.00;99130.41;6099298;23;20451;-76
2023/03/31 07:18:16;;;;;;;4.47;4.18;;;;;;;10.43;100.00;99229.69;6137226;23;20609;-76
2023/03/31 07:20:43;;;;;;;7.53;4.43;;;;;;;10.49;100.00;99237.09;6110517;23;20063;-76
2023/03/31 07:23:09;;;;;;;3.85;3.65;;;;;;;9.96;100.00;99132.66;6147560;23;20094;-76
2023/03/31 07:25:36;;;;;;;3.78;3.67;;;;;;;9.78;100.00;99056.25;6164176;23;20044;-77
2023/03/31 07:28:05;;;;;;;4.20;4.00;;;;;;;10.81;100.00;99191.84;6134557;23;20020;-76
2023/03/31 07:30:32;;;;;;;3.65;3.55;;;;;;;11.03;100.00;99193.63;6142461;23;20031;-76
2023/03/31 07:33:00;;;;;;;7.93;4.70;;;;;;;11.27;100.00;99184.78;6136967;23;20088;-76
2023/03/31 07:35:27;;;;;;;4.00;3.80;;;;;;;11.00;100.00;99125.59;6113990;23;20013;-76
2023/03/31 07:37:56;;;;;;;4.10;3.90;;;;;;;11.75;100.00;99198.38;6152907;23;20024;-76
2023/03/31 07:40:26;;;;;;;4.10;3.90;;;;;;;11.98;100.00;99196.53;6130612;23;20181;-75
2023/03/31 07:42:53;;;;;;;4.13;3.92;;;;;;;12.13;100.00;99190.97;6168455;23;20495;-76
2023/03/31 07:45:21;;;;;;;4.20;4.00;;;;;;;12.11;100.00;99156.09;6136629;23;20029;-76
2023/03/31 07:47:50;;;;;;;4.43;4.22;;;;;;;11.94;100.00;99092.56;6135555;23;20378;-77
2023/03/31 07:50:17;;;;;;;4.20;4.00;;;;;;;12.56;100.00;99147.91;6157785;23;20164;-75
2023/03/31 07:52:44;;;;;;;4.28;4.07;;;;;;;12.66;100.00;99106.66;6131062;23;20041;-76
2023/03/31 07:55:13;;;;;;;4.40;4.20;;;;;;;13.42;100.00;99160.72;6143605;23;20029;-77
2023/03/31 07:57:40;;;;;;;4.28;4.07;;;;;;;12.92;100.00;99037.75;6104552;23;20053;-76
2023/03/31 08:00:09;;;;;;;4.30;4.10;;;;;;;13.03;95.07;99032.38;6126262;23;20044;-76
2023/03/31 08:02:38;;;;;;;4.80;4.50;;;;;;;13.30;95.16;99094.94;6133194;23;20904;-77
2023/03/31 08:05:06;;;;;;;5.22;4.85;;;;;;;12.94;95.65;99020.84;6113018;23;20472;-75
2023/03/31 08:07:37;;;;;;;5.03;4.65;;;;;;;13.24;95.00;99069.13;6142640;23;20337;-77
2023/03/31 08:10:06;;;;;;;4.70;4.40;;;;;;;13.17;93.22;99079.38;6116110;23;20029;-76
2023/03/31 08:12:32;;;;;;;4.25;4.05;;;;;;;12.84;93.87;99050.75;6144112;23;20016;-76
2023/03/31 08:14:58;;;;;;;4.60;4.40;;;;;;;12.98;94.38;99084.59;6117673;23;20507;-75
2023/03/31 08:17:25;;;;;;;4.60;4.40;;;;;;;11.94;95.19;99005.81;6140128;23;20464;-77
2023/03/31 08:19:52;;;;;;;8.68;4.50;;;;;;;12.00;98.89;99003.66;6144890;23;20077;-75
2023/03/31 08:22:19;;;;;;;4.55;4.32;;;;;;;11.94;100.00;99031.28;6141069;23;20024;-75
2023/03/31 08:24:46;;;;;;;4.47;4.28;;;;;;;12.02;100.00;99075.34;6160729;23;20128;-75
2023/03/31 08:27:12;;;;;;;6.45;4.65;;;;;;;11.58;100.00;99051.75;6139558;23;20188;-76
2023/03/31 08:29:39;;;;;;;5.28;4.78;;;;;;;12.00;100.00;99120.16;6163129;23;20302;-77
2023/03/31 08:32:05;;;;;;;4.47;4.28;;;;;;;12.13;100.00;99117.34;6134815;23;20017;-76
2023/03/31 08:34:32;;;;;;;4.47;4.22;;;;;;;11.71;100.00;99043.72;6143834;23;20096;-75
2023/03/31 08:36:59;;;;;;;10.90;5.30;;;;;;;12.27;100.00;99124.09;6133010;23;20024;-76
2023/03/31 08:39:26;;;;;;;4.65;4.45;;;;;;;12.29;100.00;99099.31;6162154;23;20019;-78
2023/03/31 08:42:07;;;;;;;5.25;4.82;;;;;;;12.64;100.00;99118.31;6136152;23;20070;-77
2023/03/31 08:45:00;;;;;;;18.25;4.68;;;;;;;12.63;100.00;99049.06;6140663;23;20613;-77
2023/03/31 08:47:31;;;;;;;4.88;4.57;;;;;;;12.89;100.00;99030.09;6135366;23;20021;-78
2023/03/31 08:50:03;;;;;;;4.43;4.22;;;;;;;13.55;97.41;99069.00;6143853;23;20032;-75
2023/03/31 08:52:33;;;;;;;;;;;;;;;13.92;92.93;99055.94;6142858;23;20037;-76
2023/03/31 08:55:03;;;;;;;5.47;5.03;;;;;;;13.83;90.54;99005.84;6133018;23;19912;-75
2023/03/31 08:58:08;;;;;;;6.00;4.60;;;;;;;14.36;86.83;98998.16;6114090;23;20118;-76
2023/03/31 09:00:44;;;;;;;7.82;4.60;;;;;;;14.24;84.90;98917.53;6133978;23;20025;-75
2023/03/31 09:03:31;;;;;;;7.30;6.00;;;;;;;15.04;82.04;98980.28;6154333;23;20016;-76
2023/03/31 09:06:15;;;;;;;5.40;4.90;;;;;;;14.65;80.35;98873.13;6133088;23;20052;-76
2023/03/31 09:08:43;;;;;;;4.55;4.20;;;;;;;14.84;78.22;98905.66;6138748;23;20517;-77
2023/03/31 09:11:47;;;;;;;5.03;4.63;;;;;;;14.51;78.79;98892.09;6134289;23;20088;-75
2023/03/31 09:14:27;;;;;;;4.60;4.40;;;;;;;13.89;78.63;98816.28;6073175;23;20017;-76
2023/03/31 09:17:19;;;;;;;5.22;4.93;;;;;;;14.66;79.42;98927.59;6137146;23;20348;-76
2023/03/31 09:19:59;;;;;;;4.75;4.40;;;;;;;13.39;80.21;98719.16;6137228;23;20313;-77
2023/03/31 09:22:30;;;;;;;5.70;4.60;;;;;;;14.54;78.42;98870.69;6168776;23;20047;-76
2023/03/31 09:25:04;;;;;;;4.80;4.50;;;;;;;13.82;77.82;98730.81;6128062;23;20026;-77
2023/03/31 09:27:36;;;;;;;7.55;4.82;;;;;;;14.09;77.75;98795.88;6142450;23;20365;-77
2023/03/31 09:30:17;;;;;;;4.95;4.65;;;;;;;14.61;77.38;98853.28;6116166;23;20396;-77
2023/03/31 09:32:46;;;;;;;4.50;4.30;;;;;;;14.87;75.93;98857.78;6135055;23;20030;-76
2023/03/31 09:35:33;;;;;;;6.30;5.70;;;;;;;15.22;76.30;98862.19;6136067;23;20107;-76
2023/03/31 09:38:00;;;;;;;4.90;4.68;;;;;;;14.46;73.19;98685.88;6159280;23;20083;-76
2023/03/31 09:40:27;;;;;;;5.38;4.95;;;;;;;15.33;73.01;98797.66;6147449;23;20106;-77
2023/03/31 09:43:00;;;;;;;4.90;4.60;;;;;;;14.95;72.12;98713.44;6136693;23;20025;-77
2023/03/31 09:45:27;;;;;;;6.45;5.05;;;;;;;14.89;70.76;98698.22;6131105;23;20032;-76
2023/03/31 09:47:55;;;;;;;5.10;4.80;;;;;;;14.93;71.64;98728.59;6164844;23;20031;-76
2023/03/31 09:50:23;;;;;;;5.20;4.90;;;;;;;14.89;71.91;98727.28;6161900;23;20057;-76
2023/03/31 09:52:59;;;;;;;5.03;4.70;;;;;;;14.89;71.29;98722.00;6141144;23;20037;-75
2023/03/31 09:55:48;;;;;;;4.70;4.45;;;;;;;14.63;70.46;98692.91;6156922;23;20064;-75
2023/03/31 09:58:15;;;;;;;8.20;4.90;;;;;;;13.86;71.49;98610.06;6115120;23;20088;-75
2023/03/31 10:00:56;;;;;;;5.88;4.80;;;;;;;14.12;72.99;98678.69;6116631;23;20229;-75
2023/03/31 10:03:23;;;;;;;7.65;5.20;;;;;;;14.48;71.39;98710.28;6125152;23;20444;-75
2023/03/31 10:05:53;;;;;;;7.03;4.78;;;;;;;14.05;72.79;98673.19;6123355;23;20107;-75
2023/03/31 10:08:22;;;;;;;6.68;5.22;;;;;;;14.39;71.87;98722.56;6164663;23;20256;-75
2023/03/31 10:10:52;;;;;;;10.13;5.45;;;;;;;14.52;75.56;98781.09;6141288;23;20033;-76
2023/03/31 10:13:23;;;;;;;6.57;5.07;;;;;;;14.23;78.18;98757.59;6115335;23;20060;-77
2023/03/31 10:16:00;;;;;;;5.05;4.80;;;;;;;14.59;77.89;98796.34;6138551;23;20051;-77
2023/03/31 10:18:38;;;;;;;4.93;4.63;;;;;;;14.73;76.66;98787.88;6125361;23;20017;-76
2023/03/31 10:21:14;;;;;;;5.70;5.20;;;;;;;14.92;74.94;98757.81;6165865;23;20103;-77
2023/03/31 10:23:46;;;;;;;5.30;4.80;;;;;;;14.93;73.62;98727.75;6151860;23;20264;-76
2023/03/31 10:26:17;;;;;;;5.88;5.30;;;;;;;14.89;70.44;98632.19;6135491;23;20528;-76
2023/03/31 10:28:44;;;;;;;4.80;4.60;;;;;;;15.24;70.33;98655.94;6170349;23;20033;-77
2023/03/31 10:31:11;;;;;;;6.65;4.30;;;;;;;15.32;69.63;98629.53;6135727;23;20021;-76
2023/03/31 10:33:45;;;;;;;5.38;4.82;;;;;;;14.88;66.10;98489.72;6167019;23;20191;-76
2023/03/31 10:36:22;;;;;;;7.03;5.00;;;;;;;15.30;66.00;98544.28;6123587;23;20188;-77
2023/03/31 10:38:53;;;;;;;4.75;4.55;;;;;;;15.39;63.83;98492.25;6107298;23;20195;-76
2023/03/31 10:41:25;;;;;;;6.45;4.82;;;;;;;15.50;64.07;98524.47;6161526;23;20032;-76
2023/03/31 10:43:55;;;;;;;5.78;5.38;;;;;;;14.51;64.83;98406.44;6136175;23;20025;-76
2023/03/31 10:46:45;;;;;;;5.13;4.70;;;;;;;15.24;65.16;98534.38;6157130;23;20409;-77
2023/03/31 10:49:24;;;;;;;11.27;5.10;;;;;;;14.46;67.75;98514.31;6132875;23;20029;-75
2023/03/31 10:51:58;;;;;;;5.55;5.03;;;;;;;14.24;71.22;98616.78;6134062;23;20115;-75
2023/03/31 10:54:25;;;;;;;4.68;4.45;;;;;;;13.15;77.32;98664.34;6134592;23;20562;-76
2023/03/31 10:56:56;;;;;;;4.97;4.68;;;;;;;12.66;86.65;98787.38;6161278;23;20555;-76
2023/03/31 10:59:51;;;;;;;4.82;4.53;;;;;;;11.73;94.80;98834.19;6139304;23;20013;-76
2023/03/31 11:02:42;;;;;;;5.50;4.63;;;;;;;11.98;100.00;98953.81;6159067;23;20160;-76
2023/03/31 11:05:31;;;;;;;6.63;5.30;;;;;;;12.13;100.00;98997.22;6104048;23;20029;-76
2023/03/31 11:08:35;;;;;;;5.93;4.75;;;;;;;12.27;100.00;99038.09;6157365;23;20028;-76
2023/03/31 11:11:37;;;;;;;4.93;4.63;;;;;;;12.18;100.00;99046.78;6137119;23;20081;-75
2023/03/31 11:14:27;;;;;;;4.82;4.50;;;;;;;11.48;100.00;98999.16;6001104;23;20333;-76
2023/03/31 11:17:06;;;;;;;4.45;4.22;;;;;;;11.20;100.00;98970.88;6149114;23;20025;-77
2023/03/31 11:19:52;;;;;;;4.72;4.43;;;;;;;11.58;100.00;99039.44;6133842;23;20016;-77
2023/03/31 11:22:30;;;;;;;4.68;4.38;;;;;;;10.81;100.00;98889.22;6137519;23;20296;-77
2023/03/31 11:25:26;;;;;;;5.28;4.88;;;;;;;12.02;100.00;99038.53;6108627;23;20040;-77
2023/03/31 11:28:11;;;;;;;5.15;4.80;;;;;;;12.01;100.00;99026.34;6076241;23;20029;-77
2023/03/31 11:30:45;;;;;;;4.93;4.70;;;;;;;12.35;100.00;99045.34;6154856;23;20498;-77
2023/03/31 11:33:30;;;;;;;4.47;4.28;;;;;;;12.65;100.00;98994.47;6134266;23;20094;-77
2023/03/31 11:36:05;;;;;;;4.80;4.60;;;;;;;13.10;98.88;98993.13;6157705;23;20088;-77
2023/03/31 11:38:46;;;;;;;4.20;4.00;;;;;;;12.80;96.38;98907.22;6132771;23;20055;-76
2023/03/31 11:41:18;;;;;;;4.65;4.30;;;;;;;12.93;91.86;98903.34;6135650;23;20025;-76
2023/03/31 11:43:55;;;;;;;4.65;4.40;;;;;;;13.26;91.40;98929.38;6155894;23;20117;-76
2023/03/31 11:46:45;;;;;;;5.00;4.60;;;;;;;13.54;88.73;98940.84;6132747;23;20021;-75
2023/03/31 11:49:20;;;;;;;9.02;4.68;;;;;;;13.07;89.28;98853.81;6134011;23;20533;-75
2023/03/31 11:51:55;;;;;;;4.75;4.45;;;;;;;13.44;89.10;98868.91;6154145;23;20021;-75
2023/03/31 11:54:36;;;;;;;4.90;4.60;;;;;;;14.46;89.06;98974.38;6136860;23;20098;-76
2023/03/31 11:57:17;;;;;;;5.72;5.15;;;;;;;14.12;85.74;98861.50;6152338;23;20108;-76